<?xml version="1.0" encoding="UTF-8" standalone="no" ?>
<gpx xmlns="http://www.topografix.com/GPX/1/1" xmlns:xsi="http://www.w3.org/2001/XMLSchema-instance" xsi:schemaLocation="http://www.topografix.com/GPX/1/1 http://www.topografix.com/GPX/1/1/gpx.xsd" version="1.1" creator="VisuGPX - https://www.visugpx.com">
  <metadata>
    <name>Maroc 2018 - Trajet complet</name>
    <desc><![CDATA[Maroc 2018 - Trajet complet de tassa ouirgane au Toubkal et retour à Imlil]]></desc>
  </metadata>
  <trk>
    <name><![CDATA[2018-06-19 14:07:22]]></name>
    <trkseg>
      <trkpt lat="31.13436" lon="-7.92754">
        <ele>1841.8</ele>
        <time>2018-06-19T07:21:01Z</time>
      </trkpt>
      <trkpt lat="31.13415" lon="-7.92735">
        <ele>1847.14</ele>
        <time>2018-06-19T07:22:01Z</time>
      </trkpt>
      <trkpt lat="31.13422" lon="-7.92813">
        <ele>1851.99</ele>
        <time>2018-06-19T07:23:01Z</time>
      </trkpt>
      <trkpt lat="31.13405" lon="-7.92846">
        <ele>1857.89</ele>
        <time>2018-06-19T07:24:01Z</time>
      </trkpt>
      <trkpt lat="31.13369" lon="-7.92783">
        <ele>1858.76</ele>
        <time>2018-06-19T07:25:01Z</time>
      </trkpt>
      <trkpt lat="31.13342" lon="-7.92718">
        <ele>1863.46</ele>
        <time>2018-06-19T07:26:01Z</time>
      </trkpt>
      <trkpt lat="31.13321" lon="-7.92637">
        <ele>1869.55</ele>
        <time>2018-06-19T07:27:01Z</time>
      </trkpt>
      <trkpt lat="31.13326" lon="-7.92578">
        <ele>1875.41</ele>
        <time>2018-06-19T07:28:01Z</time>
      </trkpt>
      <trkpt lat="31.13314" lon="-7.92489">
        <ele>1880.67</ele>
        <time>2018-06-19T07:29:01Z</time>
      </trkpt>
      <trkpt lat="31.13341" lon="-7.9242">
        <ele>1886.6</ele>
        <time>2018-06-19T07:30:01Z</time>
      </trkpt>
      <trkpt lat="31.13346" lon="-7.92384">
        <ele>1891.14</ele>
        <time>2018-06-19T07:31:01Z</time>
      </trkpt>
      <trkpt lat="31.1336" lon="-7.92305">
        <ele>1900.39</ele>
        <time>2018-06-19T07:32:01Z</time>
      </trkpt>
      <trkpt lat="31.13368" lon="-7.92234">
        <ele>1908.63</ele>
        <time>2018-06-19T07:33:01Z</time>
      </trkpt>
      <trkpt lat="31.13352" lon="-7.92247">
        <ele>1916.23</ele>
        <time>2018-06-19T07:34:01Z</time>
      </trkpt>
      <trkpt lat="31.13319" lon="-7.92305">
        <ele>1923.67</ele>
        <time>2018-06-19T07:35:01Z</time>
      </trkpt>
      <trkpt lat="31.13285" lon="-7.92362">
        <ele>1933.07</ele>
        <time>2018-06-19T07:36:01Z</time>
      </trkpt>
      <trkpt lat="31.13237" lon="-7.92408">
        <ele>1941.89</ele>
        <time>2018-06-19T07:37:01Z</time>
      </trkpt>
      <trkpt lat="31.13235" lon="-7.92393">
        <ele>1950.16</ele>
        <time>2018-06-19T07:38:01Z</time>
      </trkpt>
      <trkpt lat="31.13259" lon="-7.92332">
        <ele>1957.18</ele>
        <time>2018-06-19T07:39:01Z</time>
      </trkpt>
      <trkpt lat="31.13274" lon="-7.92261">
        <ele>1963.27</ele>
        <time>2018-06-19T07:40:01Z</time>
      </trkpt>
      <trkpt lat="31.1325" lon="-7.92201">
        <ele>1966.84</ele>
        <time>2018-06-19T07:41:01Z</time>
      </trkpt>
      <trkpt lat="31.13249" lon="-7.92204">
        <ele>1966.16</ele>
        <time>2018-06-19T07:42:01Z</time>
      </trkpt>
      <trkpt lat="31.13255" lon="-7.92182">
        <ele>1966.04</ele>
        <time>2018-06-19T07:43:01Z</time>
      </trkpt>
      <trkpt lat="31.13229" lon="-7.92212">
        <ele>1964.63</ele>
        <time>2018-06-19T07:44:01Z</time>
      </trkpt>
      <trkpt lat="31.13219" lon="-7.92215">
        <ele>1964.46</ele>
        <time>2018-06-19T07:45:01Z</time>
      </trkpt>
      <trkpt lat="31.1316" lon="-7.92204">
        <ele>1961.13</ele>
        <time>2018-06-19T07:46:01Z</time>
      </trkpt>
      <trkpt lat="31.13103" lon="-7.92178">
        <ele>1960.27</ele>
        <time>2018-06-19T07:47:01Z</time>
      </trkpt>
      <trkpt lat="31.1304" lon="-7.92131">
        <ele>1958.19</ele>
        <time>2018-06-19T07:48:01Z</time>
      </trkpt>
      <trkpt lat="31.12987" lon="-7.92132">
        <ele>1954.9</ele>
        <time>2018-06-19T07:49:01Z</time>
      </trkpt>
      <trkpt lat="31.12923" lon="-7.92097">
        <ele>1950.49</ele>
        <time>2018-06-19T07:50:01Z</time>
      </trkpt>
      <trkpt lat="31.12857" lon="-7.92064">
        <ele>1948.57</ele>
        <time>2018-06-19T07:51:01Z</time>
      </trkpt>
      <trkpt lat="31.12809" lon="-7.92038">
        <ele>1948.47</ele>
        <time>2018-06-19T07:52:02Z</time>
      </trkpt>
      <trkpt lat="31.12768" lon="-7.92029">
        <ele>1950.95</ele>
        <time>2018-06-19T07:53:02Z</time>
      </trkpt>
      <trkpt lat="31.12711" lon="-7.91969">
        <ele>1953.74</ele>
        <time>2018-06-19T07:54:02Z</time>
      </trkpt>
      <trkpt lat="31.12629" lon="-7.91986">
        <ele>1948.26</ele>
        <time>2018-06-19T07:55:02Z</time>
      </trkpt>
      <trkpt lat="31.12555" lon="-7.9195">
        <ele>1947.59</ele>
        <time>2018-06-19T07:56:02Z</time>
      </trkpt>
      <trkpt lat="31.12484" lon="-7.91956">
        <ele>1943.27</ele>
        <time>2018-06-19T07:57:02Z</time>
      </trkpt>
      <trkpt lat="31.12452" lon="-7.92022">
        <ele>1942.98</ele>
        <time>2018-06-19T07:58:02Z</time>
      </trkpt>
      <trkpt lat="31.12384" lon="-7.92071">
        <ele>1941.79</ele>
        <time>2018-06-19T07:59:02Z</time>
      </trkpt>
      <trkpt lat="31.12333" lon="-7.92125">
        <ele>1942.75</ele>
        <time>2018-06-19T08:00:02Z</time>
      </trkpt>
      <trkpt lat="31.1232" lon="-7.92143">
        <ele>1944.2</ele>
        <time>2018-06-19T08:01:02Z</time>
      </trkpt>
      <trkpt lat="31.12322" lon="-7.92139">
        <ele>1942.53</ele>
        <time>2018-06-19T08:02:02Z</time>
      </trkpt>
      <trkpt lat="31.12319" lon="-7.92143">
        <ele>1942.44</ele>
        <time>2018-06-19T08:03:02Z</time>
      </trkpt>
      <trkpt lat="31.12313" lon="-7.92145">
        <ele>1943.27</ele>
        <time>2018-06-19T08:04:02Z</time>
      </trkpt>
      <trkpt lat="31.1225" lon="-7.92119">
        <ele>1941.84</ele>
        <time>2018-06-19T08:05:02Z</time>
      </trkpt>
      <trkpt lat="31.12191" lon="-7.92133">
        <ele>1944.83</ele>
        <time>2018-06-19T08:06:04Z</time>
      </trkpt>
      <trkpt lat="31.12144" lon="-7.92143">
        <ele>1946.58</ele>
        <time>2018-06-19T08:07:04Z</time>
      </trkpt>
      <trkpt lat="31.12083" lon="-7.92169">
        <ele>1947.15</ele>
        <time>2018-06-19T08:08:04Z</time>
      </trkpt>
      <trkpt lat="31.12026" lon="-7.92179">
        <ele>1950.35</ele>
        <time>2018-06-19T08:09:04Z</time>
      </trkpt>
      <trkpt lat="31.11973" lon="-7.92163">
        <ele>1951.99</ele>
        <time>2018-06-19T08:10:04Z</time>
      </trkpt>
      <trkpt lat="31.11931" lon="-7.92158">
        <ele>1952.8</ele>
        <time>2018-06-19T08:11:04Z</time>
      </trkpt>
      <trkpt lat="31.11881" lon="-7.92155">
        <ele>1956.79</ele>
        <time>2018-06-19T08:12:04Z</time>
      </trkpt>
      <trkpt lat="31.11829" lon="-7.92138">
        <ele>1959.81</ele>
        <time>2018-06-19T08:13:04Z</time>
      </trkpt>
      <trkpt lat="31.11779" lon="-7.92108">
        <ele>1961.44</ele>
        <time>2018-06-19T08:14:04Z</time>
      </trkpt>
      <trkpt lat="31.11723" lon="-7.92094">
        <ele>1964.19</ele>
        <time>2018-06-19T08:15:04Z</time>
      </trkpt>
      <trkpt lat="31.1167" lon="-7.92068">
        <ele>1967.29</ele>
        <time>2018-06-19T08:16:04Z</time>
      </trkpt>
      <trkpt lat="31.11617" lon="-7.92053">
        <ele>1968.19</ele>
        <time>2018-06-19T08:17:04Z</time>
      </trkpt>
      <trkpt lat="31.11573" lon="-7.92027">
        <ele>1970.18</ele>
        <time>2018-06-19T08:18:04Z</time>
      </trkpt>
      <trkpt lat="31.11525" lon="-7.92006">
        <ele>1973.66</ele>
        <time>2018-06-19T08:19:04Z</time>
      </trkpt>
      <trkpt lat="31.115" lon="-7.91984">
        <ele>1978.83</ele>
        <time>2018-06-19T08:20:04Z</time>
      </trkpt>
      <trkpt lat="31.11461" lon="-7.91979">
        <ele>1985.43</ele>
        <time>2018-06-19T08:21:04Z</time>
      </trkpt>
      <trkpt lat="31.11435" lon="-7.91982">
        <ele>1993.18</ele>
        <time>2018-06-19T08:22:04Z</time>
      </trkpt>
      <trkpt lat="31.11412" lon="-7.91991">
        <ele>1997.7</ele>
        <time>2018-06-19T08:23:04Z</time>
      </trkpt>
      <trkpt lat="31.11382" lon="-7.92007">
        <ele>2004.46</ele>
        <time>2018-06-19T08:24:04Z</time>
      </trkpt>
      <trkpt lat="31.1136" lon="-7.92008">
        <ele>2010.28</ele>
        <time>2018-06-19T08:25:04Z</time>
      </trkpt>
      <trkpt lat="31.11334" lon="-7.92015">
        <ele>2016.7</ele>
        <time>2018-06-19T08:26:04Z</time>
      </trkpt>
      <trkpt lat="31.11335" lon="-7.9199">
        <ele>2023.37</ele>
        <time>2018-06-19T08:27:04Z</time>
      </trkpt>
      <trkpt lat="31.11317" lon="-7.91993">
        <ele>2028.9</ele>
        <time>2018-06-19T08:28:04Z</time>
      </trkpt>
      <trkpt lat="31.11318" lon="-7.91966">
        <ele>2035.07</ele>
        <time>2018-06-19T08:29:04Z</time>
      </trkpt>
      <trkpt lat="31.11293" lon="-7.91993">
        <ele>2041.29</ele>
        <time>2018-06-19T08:30:04Z</time>
      </trkpt>
      <trkpt lat="31.11276" lon="-7.92006">
        <ele>2043.77</ele>
        <time>2018-06-19T08:31:04Z</time>
      </trkpt>
      <trkpt lat="31.11276" lon="-7.92004">
        <ele>2045.08</ele>
        <time>2018-06-19T08:32:04Z</time>
      </trkpt>
      <trkpt lat="31.11279" lon="-7.92006">
        <ele>2043.08</ele>
        <time>2018-06-19T08:33:04Z</time>
      </trkpt>
      <trkpt lat="31.11282" lon="-7.92004">
        <ele>2044.13</ele>
        <time>2018-06-19T08:34:05Z</time>
      </trkpt>
      <trkpt lat="31.11265" lon="-7.92013">
        <ele>2045.92</ele>
        <time>2018-06-19T08:35:05Z</time>
      </trkpt>
      <trkpt lat="31.11265" lon="-7.9201">
        <ele>2046.54</ele>
        <time>2018-06-19T08:36:05Z</time>
      </trkpt>
      <trkpt lat="31.11245" lon="-7.92013">
        <ele>2049.73</ele>
        <time>2018-06-19T08:37:05Z</time>
      </trkpt>
      <trkpt lat="31.11215" lon="-7.92005">
        <ele>2056.23</ele>
        <time>2018-06-19T08:38:05Z</time>
      </trkpt>
      <trkpt lat="31.11199" lon="-7.91994">
        <ele>2061.26</ele>
        <time>2018-06-19T08:39:05Z</time>
      </trkpt>
      <trkpt lat="31.11171" lon="-7.91988">
        <ele>2065.99</ele>
        <time>2018-06-19T08:40:05Z</time>
      </trkpt>
      <trkpt lat="31.11132" lon="-7.91993">
        <ele>2073.92</ele>
        <time>2018-06-19T08:41:05Z</time>
      </trkpt>
      <trkpt lat="31.1109" lon="-7.91988">
        <ele>2079.91</ele>
        <time>2018-06-19T08:42:05Z</time>
      </trkpt>
      <trkpt lat="31.11055" lon="-7.91983">
        <ele>2085.12</ele>
        <time>2018-06-19T08:43:05Z</time>
      </trkpt>
      <trkpt lat="31.11014" lon="-7.91987">
        <ele>2091.21</ele>
        <time>2018-06-19T08:44:05Z</time>
      </trkpt>
      <trkpt lat="31.11008" lon="-7.91965">
        <ele>2095.81</ele>
        <time>2018-06-19T08:45:05Z</time>
      </trkpt>
      <trkpt lat="31.10989" lon="-7.91966">
        <ele>2100.95</ele>
        <time>2018-06-19T08:46:05Z</time>
      </trkpt>
      <trkpt lat="31.10962" lon="-7.91964">
        <ele>2108.26</ele>
        <time>2018-06-19T08:47:05Z</time>
      </trkpt>
      <trkpt lat="31.10924" lon="-7.91973">
        <ele>2113.5</ele>
        <time>2018-06-19T08:48:05Z</time>
      </trkpt>
      <trkpt lat="31.10895" lon="-7.91963">
        <ele>2118.63</ele>
        <time>2018-06-19T08:49:05Z</time>
      </trkpt>
      <trkpt lat="31.10868" lon="-7.9196">
        <ele>2123.07</ele>
        <time>2018-06-19T08:50:05Z</time>
      </trkpt>
      <trkpt lat="31.10834" lon="-7.91957">
        <ele>2129.52</ele>
        <time>2018-06-19T08:51:05Z</time>
      </trkpt>
      <trkpt lat="31.10803" lon="-7.91968">
        <ele>2137.32</ele>
        <time>2018-06-19T08:52:05Z</time>
      </trkpt>
      <trkpt lat="31.10772" lon="-7.91951">
        <ele>2141.69</ele>
        <time>2018-06-19T08:53:05Z</time>
      </trkpt>
      <trkpt lat="31.1074" lon="-7.9195">
        <ele>2149.91</ele>
        <time>2018-06-19T08:54:05Z</time>
      </trkpt>
      <trkpt lat="31.10745" lon="-7.91928">
        <ele>2158.65</ele>
        <time>2018-06-19T08:55:05Z</time>
      </trkpt>
      <trkpt lat="31.10719" lon="-7.91913">
        <ele>2162.07</ele>
        <time>2018-06-19T08:56:05Z</time>
      </trkpt>
      <trkpt lat="31.1068" lon="-7.9191">
        <ele>2170.51</ele>
        <time>2018-06-19T08:57:05Z</time>
      </trkpt>
      <trkpt lat="31.10653" lon="-7.91894">
        <ele>2181.06</ele>
        <time>2018-06-19T08:58:05Z</time>
      </trkpt>
      <trkpt lat="31.1066" lon="-7.91868">
        <ele>2184.19</ele>
        <time>2018-06-19T08:59:05Z</time>
      </trkpt>
      <trkpt lat="31.1065" lon="-7.91836">
        <ele>2188.96</ele>
        <time>2018-06-19T09:00:05Z</time>
      </trkpt>
      <trkpt lat="31.10614" lon="-7.91815">
        <ele>2194.89</ele>
        <time>2018-06-19T09:01:05Z</time>
      </trkpt>
      <trkpt lat="31.10603" lon="-7.91803">
        <ele>2200.94</ele>
        <time>2018-06-19T09:02:05Z</time>
      </trkpt>
      <trkpt lat="31.10591" lon="-7.91806">
        <ele>2203.95</ele>
        <time>2018-06-19T09:03:05Z</time>
      </trkpt>
      <trkpt lat="31.10576" lon="-7.918">
        <ele>2205.53</ele>
        <time>2018-06-19T09:04:05Z</time>
      </trkpt>
      <trkpt lat="31.1057" lon="-7.91802">
        <ele>2204.95</ele>
        <time>2018-06-19T09:05:05Z</time>
      </trkpt>
      <trkpt lat="31.10572" lon="-7.91802">
        <ele>2205.03</ele>
        <time>2018-06-19T09:06:06Z</time>
      </trkpt>
      <trkpt lat="31.10572" lon="-7.91801">
        <ele>2203.44</ele>
        <time>2018-06-19T09:07:07Z</time>
      </trkpt>
      <trkpt lat="31.10567" lon="-7.91792">
        <ele>2205.84</ele>
        <time>2018-06-19T09:08:07Z</time>
      </trkpt>
      <trkpt lat="31.10541" lon="-7.9176">
        <ele>2210.15</ele>
        <time>2018-06-19T09:09:07Z</time>
      </trkpt>
      <trkpt lat="31.10514" lon="-7.91731">
        <ele>2216.5</ele>
        <time>2018-06-19T09:10:07Z</time>
      </trkpt>
      <trkpt lat="31.10477" lon="-7.91713">
        <ele>2220.81</ele>
        <time>2018-06-19T09:11:07Z</time>
      </trkpt>
      <trkpt lat="31.10453" lon="-7.91683">
        <ele>2226.01</ele>
        <time>2018-06-19T09:12:07Z</time>
      </trkpt>
      <trkpt lat="31.10409" lon="-7.91687">
        <ele>2230.34</ele>
        <time>2018-06-19T09:13:07Z</time>
      </trkpt>
      <trkpt lat="31.10375" lon="-7.91673">
        <ele>2237.04</ele>
        <time>2018-06-19T09:14:07Z</time>
      </trkpt>
      <trkpt lat="31.10346" lon="-7.9166">
        <ele>2242.13</ele>
        <time>2018-06-19T09:15:11Z</time>
      </trkpt>
      <trkpt lat="31.10298" lon="-7.91666">
        <ele>2247.39</ele>
        <time>2018-06-19T09:16:11Z</time>
      </trkpt>
      <trkpt lat="31.10265" lon="-7.91663">
        <ele>2254.36</ele>
        <time>2018-06-19T09:17:11Z</time>
      </trkpt>
      <trkpt lat="31.1023" lon="-7.91654">
        <ele>2260.25</ele>
        <time>2018-06-19T09:18:11Z</time>
      </trkpt>
      <trkpt lat="31.10208" lon="-7.91636">
        <ele>2266.28</ele>
        <time>2018-06-19T09:19:11Z</time>
      </trkpt>
      <trkpt lat="31.10179" lon="-7.91616">
        <ele>2272.7</ele>
        <time>2018-06-19T09:20:11Z</time>
      </trkpt>
      <trkpt lat="31.10158" lon="-7.91565">
        <ele>2273.1</ele>
        <time>2018-06-19T09:21:11Z</time>
      </trkpt>
      <trkpt lat="31.10133" lon="-7.91525">
        <ele>2277.3</ele>
        <time>2018-06-19T09:22:11Z</time>
      </trkpt>
      <trkpt lat="31.10109" lon="-7.91484">
        <ele>2282.55</ele>
        <time>2018-06-19T09:23:11Z</time>
      </trkpt>
      <trkpt lat="31.10094" lon="-7.91451">
        <ele>2287.86</ele>
        <time>2018-06-19T09:24:11Z</time>
      </trkpt>
      <trkpt lat="31.10056" lon="-7.91442">
        <ele>2291.42</ele>
        <time>2018-06-19T09:25:11Z</time>
      </trkpt>
      <trkpt lat="31.10029" lon="-7.91467">
        <ele>2294.66</ele>
        <time>2018-06-19T09:26:11Z</time>
      </trkpt>
      <trkpt lat="31.09984" lon="-7.91436">
        <ele>2297.49</ele>
        <time>2018-06-19T09:27:11Z</time>
      </trkpt>
      <trkpt lat="31.09949" lon="-7.91398">
        <ele>2298.44</ele>
        <time>2018-06-19T09:28:11Z</time>
      </trkpt>
      <trkpt lat="31.09924" lon="-7.91353">
        <ele>2299.61</ele>
        <time>2018-06-19T09:29:11Z</time>
      </trkpt>
      <trkpt lat="31.09925" lon="-7.91344">
        <ele>2300.15</ele>
        <time>2018-06-19T09:30:11Z</time>
      </trkpt>
      <trkpt lat="31.09907" lon="-7.91328">
        <ele>2296.76</ele>
        <time>2018-06-19T09:31:11Z</time>
      </trkpt>
      <trkpt lat="31.09886" lon="-7.91294">
        <ele>2295.15</ele>
        <time>2018-06-19T09:32:11Z</time>
      </trkpt>
      <trkpt lat="31.09846" lon="-7.9127">
        <ele>2297.91</ele>
        <time>2018-06-19T09:33:11Z</time>
      </trkpt>
      <trkpt lat="31.09826" lon="-7.91294">
        <ele>2302.31</ele>
        <time>2018-06-19T09:34:11Z</time>
      </trkpt>
      <trkpt lat="31.09817" lon="-7.91266">
        <ele>2310.59</ele>
        <time>2018-06-19T09:35:11Z</time>
      </trkpt>
      <trkpt lat="31.098" lon="-7.91257">
        <ele>2314.58</ele>
        <time>2018-06-19T09:36:11Z</time>
      </trkpt>
      <trkpt lat="31.0978" lon="-7.91259">
        <ele>2321.38</ele>
        <time>2018-06-19T09:37:11Z</time>
      </trkpt>
      <trkpt lat="31.09776" lon="-7.91298">
        <ele>2330.38</ele>
        <time>2018-06-19T09:38:13Z</time>
      </trkpt>
      <trkpt lat="31.09763" lon="-7.91282">
        <ele>2337.95</ele>
        <time>2018-06-19T09:39:14Z</time>
      </trkpt>
      <trkpt lat="31.09744" lon="-7.91279">
        <ele>2344.81</ele>
        <time>2018-06-19T09:40:14Z</time>
      </trkpt>
      <trkpt lat="31.09732" lon="-7.91297">
        <ele>2350.41</ele>
        <time>2018-06-19T09:41:14Z</time>
      </trkpt>
      <trkpt lat="31.09733" lon="-7.91311">
        <ele>2355.59</ele>
        <time>2018-06-19T09:42:14Z</time>
      </trkpt>
      <trkpt lat="31.09729" lon="-7.91319">
        <ele>2362.68</ele>
        <time>2018-06-19T09:43:14Z</time>
      </trkpt>
      <trkpt lat="31.09698" lon="-7.91281">
        <ele>2367.26</ele>
        <time>2018-06-19T09:44:14Z</time>
      </trkpt>
      <trkpt lat="31.09682" lon="-7.9128">
        <ele>2377.26</ele>
        <time>2018-06-19T09:45:14Z</time>
      </trkpt>
      <trkpt lat="31.09663" lon="-7.91276">
        <ele>2383.33</ele>
        <time>2018-06-19T09:46:14Z</time>
      </trkpt>
      <trkpt lat="31.09649" lon="-7.91268">
        <ele>2387.23</ele>
        <time>2018-06-19T09:47:14Z</time>
      </trkpt>
      <trkpt lat="31.09646" lon="-7.91265">
        <ele>2387.22</ele>
        <time>2018-06-19T09:48:15Z</time>
      </trkpt>
      <trkpt lat="31.09646" lon="-7.91266">
        <ele>2386.04</ele>
        <time>2018-06-19T09:49:16Z</time>
      </trkpt>
      <trkpt lat="31.09648" lon="-7.91266">
        <ele>2387.3</ele>
        <time>2018-06-19T09:50:17Z</time>
      </trkpt>
      <trkpt lat="31.09654" lon="-7.91265">
        <ele>2386.05</ele>
        <time>2018-06-19T09:51:17Z</time>
      </trkpt>
      <trkpt lat="31.09654" lon="-7.91266">
        <ele>2384.77</ele>
        <time>2018-06-19T09:52:18Z</time>
      </trkpt>
      <trkpt lat="31.09658" lon="-7.91268">
        <ele>2384.89</ele>
        <time>2018-06-19T09:53:19Z</time>
      </trkpt>
      <trkpt lat="31.0966" lon="-7.91273">
        <ele>2386.27</ele>
        <time>2018-06-19T09:54:19Z</time>
      </trkpt>
      <trkpt lat="31.09652" lon="-7.91283">
        <ele>2389.75</ele>
        <time>2018-06-19T09:55:19Z</time>
      </trkpt>
      <trkpt lat="31.09651" lon="-7.91285">
        <ele>2389.19</ele>
        <time>2018-06-19T09:56:19Z</time>
      </trkpt>
      <trkpt lat="31.09644" lon="-7.91289">
        <ele>2390.94</ele>
        <time>2018-06-19T09:57:19Z</time>
      </trkpt>
      <trkpt lat="31.09631" lon="-7.91291">
        <ele>2396.77</ele>
        <time>2018-06-19T09:58:19Z</time>
      </trkpt>
      <trkpt lat="31.09644" lon="-7.91306">
        <ele>2399.03</ele>
        <time>2018-06-19T09:59:19Z</time>
      </trkpt>
      <trkpt lat="31.09608" lon="-7.91298">
        <ele>2403.2</ele>
        <time>2018-06-19T10:00:21Z</time>
      </trkpt>
      <trkpt lat="31.09597" lon="-7.91378">
        <ele>2410.43</ele>
        <time>2018-06-19T10:01:40Z</time>
      </trkpt>
      <trkpt lat="31.09542" lon="-7.91382">
        <ele>2416.47</ele>
        <time>2018-06-19T10:02:40Z</time>
      </trkpt>
      <trkpt lat="31.09505" lon="-7.91388">
        <ele>2423.91</ele>
        <time>2018-06-19T10:03:40Z</time>
      </trkpt>
      <trkpt lat="31.09481" lon="-7.9139">
        <ele>2430.76</ele>
        <time>2018-06-19T10:04:40Z</time>
      </trkpt>
      <trkpt lat="31.09467" lon="-7.91404">
        <ele>2435.9</ele>
        <time>2018-06-19T10:05:40Z</time>
      </trkpt>
      <trkpt lat="31.09439" lon="-7.91407">
        <ele>2441.69</ele>
        <time>2018-06-19T10:06:40Z</time>
      </trkpt>
      <trkpt lat="31.09406" lon="-7.9141">
        <ele>2450.29</ele>
        <time>2018-06-19T10:07:40Z</time>
      </trkpt>
      <trkpt lat="31.09373" lon="-7.91415">
        <ele>2455.07</ele>
        <time>2018-06-19T10:08:41Z</time>
      </trkpt>
      <trkpt lat="31.0937" lon="-7.91415">
        <ele>2458.25</ele>
        <time>2018-06-19T10:09:41Z</time>
      </trkpt>
      <trkpt lat="31.09379" lon="-7.91437">
        <ele>2466.04</ele>
        <time>2018-06-19T10:10:41Z</time>
      </trkpt>
      <trkpt lat="31.094" lon="-7.9147">
        <ele>2471.32</ele>
        <time>2018-06-19T10:11:41Z</time>
      </trkpt>
      <trkpt lat="31.09429" lon="-7.91484">
        <ele>2476.93</ele>
        <time>2018-06-19T10:12:41Z</time>
      </trkpt>
      <trkpt lat="31.09406" lon="-7.91502">
        <ele>2484.15</ele>
        <time>2018-06-19T10:13:41Z</time>
      </trkpt>
      <trkpt lat="31.09391" lon="-7.91525">
        <ele>2489.3</ele>
        <time>2018-06-19T10:14:41Z</time>
      </trkpt>
      <trkpt lat="31.09368" lon="-7.91536">
        <ele>2495.31</ele>
        <time>2018-06-19T10:15:41Z</time>
      </trkpt>
      <trkpt lat="31.09348" lon="-7.91551">
        <ele>2506.06</ele>
        <time>2018-06-19T10:16:41Z</time>
      </trkpt>
      <trkpt lat="31.09341" lon="-7.91565">
        <ele>2511.86</ele>
        <time>2018-06-19T10:17:41Z</time>
      </trkpt>
      <trkpt lat="31.09307" lon="-7.91558">
        <ele>2516.24</ele>
        <time>2018-06-19T10:18:42Z</time>
      </trkpt>
      <trkpt lat="31.0928" lon="-7.91557">
        <ele>2519.74</ele>
        <time>2018-06-19T10:19:42Z</time>
      </trkpt>
      <trkpt lat="31.09241" lon="-7.91548">
        <ele>2526.08</ele>
        <time>2018-06-19T10:20:42Z</time>
      </trkpt>
      <trkpt lat="31.09215" lon="-7.91529">
        <ele>2533.39</ele>
        <time>2018-06-19T10:21:42Z</time>
      </trkpt>
      <trkpt lat="31.09167" lon="-7.91503">
        <ele>2538.34</ele>
        <time>2018-06-19T10:22:55Z</time>
      </trkpt>
      <trkpt lat="31.0916" lon="-7.91503">
        <ele>2538.25</ele>
        <time>2018-06-19T10:23:55Z</time>
      </trkpt>
      <trkpt lat="31.09163" lon="-7.91493">
        <ele>2537.15</ele>
        <time>2018-06-19T10:24:55Z</time>
      </trkpt>
      <trkpt lat="31.09161" lon="-7.91498">
        <ele>2540.78</ele>
        <time>2018-06-19T10:25:55Z</time>
      </trkpt>
      <trkpt lat="31.09153" lon="-7.915">
        <ele>2538.38</ele>
        <time>2018-06-19T10:26:55Z</time>
      </trkpt>
      <trkpt lat="31.09159" lon="-7.91505">
        <ele>2543.21</ele>
        <time>2018-06-19T10:27:56Z</time>
      </trkpt>
      <trkpt lat="31.09161" lon="-7.91503">
        <ele>2544.96</ele>
        <time>2018-06-19T10:28:56Z</time>
      </trkpt>
      <trkpt lat="31.09138" lon="-7.91502">
        <ele>2544.94</ele>
        <time>2018-06-19T10:29:56Z</time>
      </trkpt>
      <trkpt lat="31.09155" lon="-7.91492">
        <ele>2543.45</ele>
        <time>2018-06-19T10:30:56Z</time>
      </trkpt>
      <trkpt lat="31.09153" lon="-7.91505">
        <ele>2544.07</ele>
        <time>2018-06-19T10:31:57Z</time>
      </trkpt>
      <trkpt lat="31.09143" lon="-7.91502">
        <ele>2547.33</ele>
        <time>2018-06-19T10:32:57Z</time>
      </trkpt>
      <trkpt lat="31.09141" lon="-7.91505">
        <ele>2544.07</ele>
        <time>2018-06-19T10:33:57Z</time>
      </trkpt>
      <trkpt lat="31.0914" lon="-7.91498">
        <ele>2545.58</ele>
        <time>2018-06-19T10:34:57Z</time>
      </trkpt>
      <trkpt lat="31.09142" lon="-7.91498">
        <ele>2545.35</ele>
        <time>2018-06-19T10:35:57Z</time>
      </trkpt>
      <trkpt lat="31.09147" lon="-7.91498">
        <ele>2544.12</ele>
        <time>2018-06-19T10:36:57Z</time>
      </trkpt>
      <trkpt lat="31.09144" lon="-7.91498">
        <ele>2540.81</ele>
        <time>2018-06-19T10:37:58Z</time>
      </trkpt>
      <trkpt lat="31.09143" lon="-7.91498">
        <ele>2545.83</ele>
        <time>2018-06-19T10:38:58Z</time>
      </trkpt>
      <trkpt lat="31.09147" lon="-7.91495">
        <ele>2544.12</ele>
        <time>2018-06-19T10:39:58Z</time>
      </trkpt>
      <trkpt lat="31.09147" lon="-7.91494">
        <ele>2545.13</ele>
        <time>2018-06-19T10:40:59Z</time>
      </trkpt>
      <trkpt lat="31.09151" lon="-7.91495">
        <ele>2545.94</ele>
        <time>2018-06-19T10:41:59Z</time>
      </trkpt>
      <trkpt lat="31.09145" lon="-7.91495">
        <ele>2546.23</ele>
        <time>2018-06-19T10:42:59Z</time>
      </trkpt>
      <trkpt lat="31.09142" lon="-7.91504">
        <ele>2543.36</ele>
        <time>2018-06-19T10:43:59Z</time>
      </trkpt>
      <trkpt lat="31.09147" lon="-7.91495">
        <ele>2548.3</ele>
        <time>2018-06-19T10:44:59Z</time>
      </trkpt>
      <trkpt lat="31.09147" lon="-7.91513">
        <ele>2547.75</ele>
        <time>2018-06-19T10:45:59Z</time>
      </trkpt>
      <trkpt lat="31.0912" lon="-7.91503">
        <ele>2555.82</ele>
        <time>2018-06-19T10:46:59Z</time>
      </trkpt>
      <trkpt lat="31.0909" lon="-7.91492">
        <ele>2562.21</ele>
        <time>2018-06-19T10:47:59Z</time>
      </trkpt>
      <trkpt lat="31.09056" lon="-7.91496">
        <ele>2564.1</ele>
        <time>2018-06-19T10:48:59Z</time>
      </trkpt>
      <trkpt lat="31.09022" lon="-7.91481">
        <ele>2570.74</ele>
        <time>2018-06-19T10:49:59Z</time>
      </trkpt>
      <trkpt lat="31.08987" lon="-7.9148">
        <ele>2573.3</ele>
        <time>2018-06-19T10:50:59Z</time>
      </trkpt>
      <trkpt lat="31.08959" lon="-7.91485">
        <ele>2582.49</ele>
        <time>2018-06-19T10:51:59Z</time>
      </trkpt>
      <trkpt lat="31.08934" lon="-7.91502">
        <ele>2587.66</ele>
        <time>2018-06-19T10:52:59Z</time>
      </trkpt>
      <trkpt lat="31.08905" lon="-7.91518">
        <ele>2594.37</ele>
        <time>2018-06-19T10:53:59Z</time>
      </trkpt>
      <trkpt lat="31.08883" lon="-7.91538">
        <ele>2602.25</ele>
        <time>2018-06-19T10:54:59Z</time>
      </trkpt>
      <trkpt lat="31.08879" lon="-7.91538">
        <ele>2601.89</ele>
        <time>2018-06-19T10:55:59Z</time>
      </trkpt>
      <trkpt lat="31.08877" lon="-7.91539">
        <ele>2600.41</ele>
        <time>2018-06-19T10:56:59Z</time>
      </trkpt>
      <trkpt lat="31.08859" lon="-7.91555">
        <ele>2604.73</ele>
        <time>2018-06-19T10:57:59Z</time>
      </trkpt>
      <trkpt lat="31.08833" lon="-7.91577">
        <ele>2613.24</ele>
        <time>2018-06-19T10:58:59Z</time>
      </trkpt>
      <trkpt lat="31.0881" lon="-7.91604">
        <ele>2621.67</ele>
        <time>2018-06-19T10:59:59Z</time>
      </trkpt>
      <trkpt lat="31.08788" lon="-7.91627">
        <ele>2623.66</ele>
        <time>2018-06-19T11:00:59Z</time>
      </trkpt>
      <trkpt lat="31.08768" lon="-7.91648">
        <ele>2633.84</ele>
        <time>2018-06-19T11:01:59Z</time>
      </trkpt>
      <trkpt lat="31.0874" lon="-7.91666">
        <ele>2639.21</ele>
        <time>2018-06-19T11:02:59Z</time>
      </trkpt>
      <trkpt lat="31.08714" lon="-7.91685">
        <ele>2644.92</ele>
        <time>2018-06-19T11:03:59Z</time>
      </trkpt>
      <trkpt lat="31.08686" lon="-7.9171">
        <ele>2651.57</ele>
        <time>2018-06-19T11:04:59Z</time>
      </trkpt>
      <trkpt lat="31.08664" lon="-7.91714">
        <ele>2654.39</ele>
        <time>2018-06-19T11:05:59Z</time>
      </trkpt>
      <trkpt lat="31.08646" lon="-7.91754">
        <ele>2651.26</ele>
        <time>2018-06-19T11:06:59Z</time>
      </trkpt>
      <trkpt lat="31.08643" lon="-7.91757">
        <ele>2653.7</ele>
        <time>2018-06-19T11:07:59Z</time>
      </trkpt>
      <trkpt lat="31.08637" lon="-7.91761">
        <ele>2655.33</ele>
        <time>2018-06-19T11:08:59Z</time>
      </trkpt>
      <trkpt lat="31.08637" lon="-7.91763">
        <ele>2655.11</ele>
        <time>2018-06-19T11:09:59Z</time>
      </trkpt>
      <trkpt lat="31.08635" lon="-7.91764">
        <ele>2656.49</ele>
        <time>2018-06-19T11:10:59Z</time>
      </trkpt>
      <trkpt lat="31.08634" lon="-7.91763">
        <ele>2656.63</ele>
        <time>2018-06-19T11:11:59Z</time>
      </trkpt>
      <trkpt lat="31.08639" lon="-7.91762">
        <ele>2656.16</ele>
        <time>2018-06-19T11:12:59Z</time>
      </trkpt>
      <trkpt lat="31.08632" lon="-7.91767">
        <ele>2656.3</ele>
        <time>2018-06-19T11:13:59Z</time>
      </trkpt>
      <trkpt lat="31.08633" lon="-7.91772">
        <ele>2656.82</ele>
        <time>2018-06-19T11:14:59Z</time>
      </trkpt>
      <trkpt lat="31.08632" lon="-7.9177">
        <ele>2656.59</ele>
        <time>2018-06-19T11:15:59Z</time>
      </trkpt>
      <trkpt lat="31.08634" lon="-7.91769">
        <ele>2655.65</ele>
        <time>2018-06-19T11:16:59Z</time>
      </trkpt>
      <trkpt lat="31.08633" lon="-7.91772">
        <ele>2651.03</ele>
        <time>2018-06-19T11:17:59Z</time>
      </trkpt>
      <trkpt lat="31.08625" lon="-7.91781">
        <ele>2656.49</ele>
        <time>2018-06-19T11:18:59Z</time>
      </trkpt>
      <trkpt lat="31.08609" lon="-7.91802">
        <ele>2658.57</ele>
        <time>2018-06-19T11:19:59Z</time>
      </trkpt>
      <trkpt lat="31.08589" lon="-7.91833">
        <ele>2661.09</ele>
        <time>2018-06-19T11:20:59Z</time>
      </trkpt>
      <trkpt lat="31.08567" lon="-7.91859">
        <ele>2669.51</ele>
        <time>2018-06-19T11:21:59Z</time>
      </trkpt>
      <trkpt lat="31.0855" lon="-7.91893">
        <ele>2677.66</ele>
        <time>2018-06-19T11:22:59Z</time>
      </trkpt>
      <trkpt lat="31.08539" lon="-7.91928">
        <ele>2686.22</ele>
        <time>2018-06-19T11:23:59Z</time>
      </trkpt>
      <trkpt lat="31.08525" lon="-7.91963">
        <ele>2694.01</ele>
        <time>2018-06-19T11:24:59Z</time>
      </trkpt>
      <trkpt lat="31.08515" lon="-7.91988">
        <ele>2690.86</ele>
        <time>2018-06-19T11:25:59Z</time>
      </trkpt>
      <trkpt lat="31.08503" lon="-7.92023">
        <ele>2702.68</ele>
        <time>2018-06-19T11:26:59Z</time>
      </trkpt>
      <trkpt lat="31.08493" lon="-7.92059">
        <ele>2703.89</ele>
        <time>2018-06-19T11:27:59Z</time>
      </trkpt>
      <trkpt lat="31.08501" lon="-7.92094">
        <ele>2714.76</ele>
        <time>2018-06-19T11:29:01Z</time>
      </trkpt>
      <trkpt lat="31.08502" lon="-7.9213">
        <ele>2720.74</ele>
        <time>2018-06-19T11:30:01Z</time>
      </trkpt>
      <trkpt lat="31.08503" lon="-7.92136">
        <ele>2722.22</ele>
        <time>2018-06-19T11:31:01Z</time>
      </trkpt>
      <trkpt lat="31.08505" lon="-7.9217">
        <ele>2727.6</ele>
        <time>2018-06-19T11:32:01Z</time>
      </trkpt>
      <trkpt lat="31.08502" lon="-7.92206">
        <ele>2733.73</ele>
        <time>2018-06-19T11:33:01Z</time>
      </trkpt>
      <trkpt lat="31.08503" lon="-7.92239">
        <ele>2742.18</ele>
        <time>2018-06-19T11:34:01Z</time>
      </trkpt>
      <trkpt lat="31.08505" lon="-7.92275">
        <ele>2744.49</ele>
        <time>2018-06-19T11:35:01Z</time>
      </trkpt>
      <trkpt lat="31.08497" lon="-7.92317">
        <ele>2754.84</ele>
        <time>2018-06-19T11:36:01Z</time>
      </trkpt>
      <trkpt lat="31.08483" lon="-7.92348">
        <ele>2760.23</ele>
        <time>2018-06-19T11:37:01Z</time>
      </trkpt>
      <trkpt lat="31.08463" lon="-7.92385">
        <ele>2763.33</ele>
        <time>2018-06-19T11:38:01Z</time>
      </trkpt>
      <trkpt lat="31.08449" lon="-7.92423">
        <ele>2768.91</ele>
        <time>2018-06-19T11:39:01Z</time>
      </trkpt>
      <trkpt lat="31.08449" lon="-7.92461">
        <ele>2773.65</ele>
        <time>2018-06-19T11:40:01Z</time>
      </trkpt>
      <trkpt lat="31.0845" lon="-7.925">
        <ele>2779.65</ele>
        <time>2018-06-19T11:41:01Z</time>
      </trkpt>
      <trkpt lat="31.0845" lon="-7.92522">
        <ele>2781.8</ele>
        <time>2018-06-19T11:42:01Z</time>
      </trkpt>
      <trkpt lat="31.08444" lon="-7.92545">
        <ele>2785.02</ele>
        <time>2018-06-19T11:43:01Z</time>
      </trkpt>
      <trkpt lat="31.08426" lon="-7.92585">
        <ele>2791.45</ele>
        <time>2018-06-19T11:44:01Z</time>
      </trkpt>
      <trkpt lat="31.08399" lon="-7.92605">
        <ele>2797.67</ele>
        <time>2018-06-19T11:45:01Z</time>
      </trkpt>
      <trkpt lat="31.08371" lon="-7.92629">
        <ele>2805.08</ele>
        <time>2018-06-19T11:46:01Z</time>
      </trkpt>
      <trkpt lat="31.08366" lon="-7.92627">
        <ele>2804.97</ele>
        <time>2018-06-19T11:47:01Z</time>
      </trkpt>
      <trkpt lat="31.08345" lon="-7.92648">
        <ele>2807.71</ele>
        <time>2018-06-19T11:48:01Z</time>
      </trkpt>
      <trkpt lat="31.08316" lon="-7.92669">
        <ele>2813.81</ele>
        <time>2018-06-19T11:49:01Z</time>
      </trkpt>
      <trkpt lat="31.08284" lon="-7.92687">
        <ele>2819.12</ele>
        <time>2018-06-19T11:50:01Z</time>
      </trkpt>
      <trkpt lat="31.08261" lon="-7.92703">
        <ele>2825.48</ele>
        <time>2018-06-19T11:51:01Z</time>
      </trkpt>
      <trkpt lat="31.08229" lon="-7.92708">
        <ele>2832.61</ele>
        <time>2018-06-19T11:52:02Z</time>
      </trkpt>
      <trkpt lat="31.08202" lon="-7.92733">
        <ele>2839.47</ele>
        <time>2018-06-19T11:53:02Z</time>
      </trkpt>
      <trkpt lat="31.08173" lon="-7.92743">
        <ele>2844.95</ele>
        <time>2018-06-19T11:54:03Z</time>
      </trkpt>
      <trkpt lat="31.08152" lon="-7.92767">
        <ele>2850.83</ele>
        <time>2018-06-19T11:55:03Z</time>
      </trkpt>
      <trkpt lat="31.08133" lon="-7.92797">
        <ele>2856.38</ele>
        <time>2018-06-19T11:56:03Z</time>
      </trkpt>
      <trkpt lat="31.08128" lon="-7.92798">
        <ele>2859.17</ele>
        <time>2018-06-19T11:57:03Z</time>
      </trkpt>
      <trkpt lat="31.08137" lon="-7.92797">
        <ele>2862.86</ele>
        <time>2018-06-19T11:58:03Z</time>
      </trkpt>
      <trkpt lat="31.08141" lon="-7.92796">
        <ele>2862.69</ele>
        <time>2018-06-19T11:59:03Z</time>
      </trkpt>
      <trkpt lat="31.08131" lon="-7.92806">
        <ele>2860.25</ele>
        <time>2018-06-19T12:00:03Z</time>
      </trkpt>
      <trkpt lat="31.08132" lon="-7.92795">
        <ele>2857.82</ele>
        <time>2018-06-19T12:01:03Z</time>
      </trkpt>
      <trkpt lat="31.08123" lon="-7.92818">
        <ele>2858.91</ele>
        <time>2018-06-19T12:02:03Z</time>
      </trkpt>
      <trkpt lat="31.08128" lon="-7.92827">
        <ele>2864.35</ele>
        <time>2018-06-19T12:03:03Z</time>
      </trkpt>
      <trkpt lat="31.08127" lon="-7.92831">
        <ele>2864.51</ele>
        <time>2018-06-19T12:04:03Z</time>
      </trkpt>
      <trkpt lat="31.08126" lon="-7.92847">
        <ele>2867.3</ele>
        <time>2018-06-19T12:05:03Z</time>
      </trkpt>
      <trkpt lat="31.08117" lon="-7.92883">
        <ele>2872.72</ele>
        <time>2018-06-19T12:06:03Z</time>
      </trkpt>
      <trkpt lat="31.08089" lon="-7.92911">
        <ele>2877.08</ele>
        <time>2018-06-19T12:07:03Z</time>
      </trkpt>
      <trkpt lat="31.08061" lon="-7.92942">
        <ele>2881.23</ele>
        <time>2018-06-19T12:08:03Z</time>
      </trkpt>
      <trkpt lat="31.08023" lon="-7.92957">
        <ele>2884.69</ele>
        <time>2018-06-19T12:09:03Z</time>
      </trkpt>
      <trkpt lat="31.07998" lon="-7.92989">
        <ele>2889.58</ele>
        <time>2018-06-19T12:10:03Z</time>
      </trkpt>
      <trkpt lat="31.07973" lon="-7.92992">
        <ele>2894.27</ele>
        <time>2018-06-19T12:11:03Z</time>
      </trkpt>
      <trkpt lat="31.07956" lon="-7.92965">
        <ele>2895.06</ele>
        <time>2018-06-19T12:12:03Z</time>
      </trkpt>
      <trkpt lat="31.07919" lon="-7.92973">
        <ele>2900.04</ele>
        <time>2018-06-19T12:13:03Z</time>
      </trkpt>
      <trkpt lat="31.07889" lon="-7.92995">
        <ele>2902.66</ele>
        <time>2018-06-19T12:14:03Z</time>
      </trkpt>
      <trkpt lat="31.07877" lon="-7.93005">
        <ele>2909.07</ele>
        <time>2018-06-19T12:15:03Z</time>
      </trkpt>
      <trkpt lat="31.07816" lon="-7.93037">
        <ele>2913.82</ele>
        <time>2018-06-19T12:16:03Z</time>
      </trkpt>
      <trkpt lat="31.07786" lon="-7.93061">
        <ele>2918.58</ele>
        <time>2018-06-19T12:17:03Z</time>
      </trkpt>
      <trkpt lat="31.07749" lon="-7.93076">
        <ele>2923.67</ele>
        <time>2018-06-19T12:18:03Z</time>
      </trkpt>
      <trkpt lat="31.07712" lon="-7.93098">
        <ele>2928.76</ele>
        <time>2018-06-19T12:19:03Z</time>
      </trkpt>
      <trkpt lat="31.07672" lon="-7.93119">
        <ele>2933.47</ele>
        <time>2018-06-19T12:20:03Z</time>
      </trkpt>
      <trkpt lat="31.07638" lon="-7.93148">
        <ele>2938.65</ele>
        <time>2018-06-19T12:21:03Z</time>
      </trkpt>
      <trkpt lat="31.07589" lon="-7.9316">
        <ele>2943.78</ele>
        <time>2018-06-19T12:22:03Z</time>
      </trkpt>
      <trkpt lat="31.07558" lon="-7.93197">
        <ele>2947.45</ele>
        <time>2018-06-19T12:23:03Z</time>
      </trkpt>
      <trkpt lat="31.0753" lon="-7.93212">
        <ele>2952.05</ele>
        <time>2018-06-19T12:24:03Z</time>
      </trkpt>
      <trkpt lat="31.07502" lon="-7.93237">
        <ele>2957.75</ele>
        <time>2018-06-19T12:25:03Z</time>
      </trkpt>
      <trkpt lat="31.07479" lon="-7.93268">
        <ele>2962.07</ele>
        <time>2018-06-19T12:26:03Z</time>
      </trkpt>
      <trkpt lat="31.07444" lon="-7.93289">
        <ele>2967.24</ele>
        <time>2018-06-19T12:27:03Z</time>
      </trkpt>
      <trkpt lat="31.07413" lon="-7.93305">
        <ele>2972.13</ele>
        <time>2018-06-19T12:28:03Z</time>
      </trkpt>
      <trkpt lat="31.07374" lon="-7.93319">
        <ele>2978.33</ele>
        <time>2018-06-19T12:29:03Z</time>
      </trkpt>
      <trkpt lat="31.07349" lon="-7.93339">
        <ele>2982.33</ele>
        <time>2018-06-19T12:30:03Z</time>
      </trkpt>
      <trkpt lat="31.07322" lon="-7.93367">
        <ele>2985.96</ele>
        <time>2018-06-19T12:31:03Z</time>
      </trkpt>
      <trkpt lat="31.07321" lon="-7.93367">
        <ele>2986.38</ele>
        <time>2018-06-19T12:31:04Z</time>
      </trkpt>
      <trkpt lat="31.07294" lon="-7.93411">
        <ele>2987.96</ele>
        <time>2018-06-19T12:32:04Z</time>
      </trkpt>
      <trkpt lat="31.07279" lon="-7.93457">
        <ele>2993.49</ele>
        <time>2018-06-19T12:33:04Z</time>
      </trkpt>
      <trkpt lat="31.07237" lon="-7.93459">
        <ele>2995.18</ele>
        <time>2018-06-19T12:34:04Z</time>
      </trkpt>
      <trkpt lat="31.07205" lon="-7.93483">
        <ele>3000.45</ele>
        <time>2018-06-19T12:35:04Z</time>
      </trkpt>
      <trkpt lat="31.07164" lon="-7.93496">
        <ele>3004.23</ele>
        <time>2018-06-19T12:36:04Z</time>
      </trkpt>
      <trkpt lat="31.07118" lon="-7.93513">
        <ele>3009.59</ele>
        <time>2018-06-19T12:37:04Z</time>
      </trkpt>
      <trkpt lat="31.07078" lon="-7.93508">
        <ele>3014.4</ele>
        <time>2018-06-19T12:38:06Z</time>
      </trkpt>
      <trkpt lat="31.07049" lon="-7.9354">
        <ele>3017.14</ele>
        <time>2018-06-19T12:39:06Z</time>
      </trkpt>
      <trkpt lat="31.07003" lon="-7.93528">
        <ele>3021.74</ele>
        <time>2018-06-19T12:40:06Z</time>
      </trkpt>
      <trkpt lat="31.06968" lon="-7.93557">
        <ele>3024.72</ele>
        <time>2018-06-19T12:41:06Z</time>
      </trkpt>
      <trkpt lat="31.06937" lon="-7.93571">
        <ele>3030.27</ele>
        <time>2018-06-19T12:42:06Z</time>
      </trkpt>
      <trkpt lat="31.06908" lon="-7.93593">
        <ele>3034.35</ele>
        <time>2018-06-19T12:43:06Z</time>
      </trkpt>
      <trkpt lat="31.0688" lon="-7.93615">
        <ele>3040.76</ele>
        <time>2018-06-19T12:44:06Z</time>
      </trkpt>
      <trkpt lat="31.06861" lon="-7.93604">
        <ele>3043.96</ele>
        <time>2018-06-19T12:45:06Z</time>
      </trkpt>
      <trkpt lat="31.06861" lon="-7.93608">
        <ele>3042.5</ele>
        <time>2018-06-19T12:46:06Z</time>
      </trkpt>
      <trkpt lat="31.06859" lon="-7.93608">
        <ele>3044.04</ele>
        <time>2018-06-19T12:47:06Z</time>
      </trkpt>
      <trkpt lat="31.06858" lon="-7.93607">
        <ele>3043.05</ele>
        <time>2018-06-19T12:48:06Z</time>
      </trkpt>
      <trkpt lat="31.06854" lon="-7.93608">
        <ele>3042.51</ele>
        <time>2018-06-19T12:49:06Z</time>
      </trkpt>
      <trkpt lat="31.06853" lon="-7.93608">
        <ele>3043.51</ele>
        <time>2018-06-19T12:50:06Z</time>
      </trkpt>
      <trkpt lat="31.06854" lon="-7.93611">
        <ele>3043.17</ele>
        <time>2018-06-19T12:51:06Z</time>
      </trkpt>
      <trkpt lat="31.06836" lon="-7.93606">
        <ele>3045.74</ele>
        <time>2018-06-19T12:52:06Z</time>
      </trkpt>
      <trkpt lat="31.06804" lon="-7.93605">
        <ele>3052.3</ele>
        <time>2018-06-19T12:53:06Z</time>
      </trkpt>
      <trkpt lat="31.06762" lon="-7.93618">
        <ele>3051.93</ele>
        <time>2018-06-19T12:54:06Z</time>
      </trkpt>
      <trkpt lat="31.06721" lon="-7.93629">
        <ele>3055.45</ele>
        <time>2018-06-19T12:55:06Z</time>
      </trkpt>
      <trkpt lat="31.0668" lon="-7.93633">
        <ele>3058.61</ele>
        <time>2018-06-19T12:56:06Z</time>
      </trkpt>
      <trkpt lat="31.06663" lon="-7.93634">
        <ele>3060.04</ele>
        <time>2018-06-19T12:57:07Z</time>
      </trkpt>
      <trkpt lat="31.0663" lon="-7.93654">
        <ele>3064.97</ele>
        <time>2018-06-19T12:58:07Z</time>
      </trkpt>
      <trkpt lat="31.06588" lon="-7.93673">
        <ele>3066.86</ele>
        <time>2018-06-19T12:59:07Z</time>
      </trkpt>
      <trkpt lat="31.06552" lon="-7.93693">
        <ele>3071.26</ele>
        <time>2018-06-19T13:00:07Z</time>
      </trkpt>
      <trkpt lat="31.06535" lon="-7.93719">
        <ele>3076</ele>
        <time>2018-06-19T13:01:10Z</time>
      </trkpt>
      <trkpt lat="31.06525" lon="-7.93725">
        <ele>3079.91</ele>
        <time>2018-06-19T13:02:10Z</time>
      </trkpt>
      <trkpt lat="31.06499" lon="-7.93763">
        <ele>3083.97</ele>
        <time>2018-06-19T13:03:10Z</time>
      </trkpt>
      <trkpt lat="31.06468" lon="-7.93799">
        <ele>3090.99</ele>
        <time>2018-06-19T13:04:10Z</time>
      </trkpt>
      <trkpt lat="31.06426" lon="-7.93795">
        <ele>3095</ele>
        <time>2018-06-19T13:05:10Z</time>
      </trkpt>
      <trkpt lat="31.06388" lon="-7.93767">
        <ele>3101.11</ele>
        <time>2018-06-19T13:06:10Z</time>
      </trkpt>
      <trkpt lat="31.06357" lon="-7.93762">
        <ele>3109.47</ele>
        <time>2018-06-19T13:07:10Z</time>
      </trkpt>
      <trkpt lat="31.06354" lon="-7.93761">
        <ele>3110.55</ele>
        <time>2018-06-19T13:07:22Z</time>
      </trkpt>
    </trkseg>
  </trk>
</gpx>